createdAt,value
2018-03-21T00:01:08.742Z,-0.58
2018-03-21T00:03:37.200Z,-0.68
2018-03-21T00:06:05.602Z,-0.52
2018-03-21T00:08:34.062Z,-0.58
2018-03-21T00:11:02.448Z,-0.74
2018-03-21T00:13:31.011Z,-0.74
2018-03-21T00:15:59.385Z,-0.86
2018-03-21T00:18:27.794Z,-0.85
2018-03-21T00:20:56.180Z,-0.84
2018-03-21T00:23:25.332Z,-0.83
2018-03-21T00:25:53.711Z,-0.77
2018-03-21T00:28:22.207Z,-0.81
2018-03-21T00:30:50.639Z,-1.10
2018-03-21T00:33:19.808Z,-0.97
2018-03-21T00:35:48.210Z,-1.15
2018-03-21T00:38:17.354Z,-1.32
2018-03-21T00:40:46.148Z,-1.30
2018-03-21T00:43:14.626Z,-1.37
2018-03-21T00:45:43.163Z,-1.49
2018-03-21T00:48:11.581Z,-1.52
2018-03-21T00:50:40.025Z,-1.56
2018-03-21T00:53:08.462Z,-1.66
2018-03-21T00:55:36.965Z,-1.61
2018-03-21T00:58:05.374Z,-1.42
2018-03-21T01:00:34.519Z,-1.42
2018-03-21T01:03:02.937Z,-1.46
2018-03-21T01:05:31.373Z,-1.46
2018-03-21T01:07:59.833Z,-1.44
2018-03-21T01:10:29.017Z,-1.60
2018-03-21T01:12:58.256Z,-1.76
2018-03-21T01:15:26.845Z,-1.69
2018-03-21T01:17:55.224Z,-1.80
2018-03-21T01:20:23.606Z,-1.80
2018-03-21T01:22:52.003Z,-1.83
2018-03-21T01:25:20.420Z,-1.90
2018-03-21T01:27:49.570Z,-1.78
2018-03-21T01:30:18.063Z,-1.76
2018-03-21T01:32:46.456Z,-1.70
2018-03-21T01:35:14.839Z,-1.89
2018-03-21T01:37:43.223Z,-2.05
2018-03-21T01:40:11.679Z,-1.91
2018-03-21T01:42:40.382Z,-1.99
2018-03-21T01:45:08.899Z,-2.21
2018-03-21T01:47:37.299Z,-2.38
2018-03-21T01:50:07.028Z,-2.34
2018-03-21T01:52:35.432Z,-2.47
2018-03-21T01:55:03.836Z,-2.54
2018-03-21T01:57:33.051Z,-2.57
2018-03-21T02:00:01.481Z,-2.66
2018-03-21T02:02:29.978Z,-2.73
2018-03-21T02:04:58.580Z,-2.63
2018-03-21T02:07:26.985Z,-2.74
2018-03-21T02:09:55.399Z,-2.77
2018-03-21T02:12:23.772Z,-2.72
2018-03-21T02:14:52.202Z,-2.80
2018-03-21T02:17:20.782Z,-2.72
2018-03-21T02:19:49.172Z,-2.80
2018-03-21T02:22:17.602Z,-2.72
2018-03-21T02:24:47.007Z,-2.77
2018-03-21T02:27:15.520Z,-2.72
2018-03-21T02:29:43.903Z,-2.96
2018-03-21T02:32:12.306Z,-2.92
2018-03-21T02:34:40.720Z,-2.68
2018-03-21T02:37:09.984Z,-2.82
2018-03-21T02:39:39.252Z,-2.74
2018-03-21T02:42:07.632Z,-2.87
2018-03-21T02:44:36.031Z,-2.76
2018-03-21T02:47:04.574Z,-2.92
2018-03-21T02:49:32.979Z,-2.72
2018-03-21T02:52:01.349Z,-2.72
2018-03-21T02:54:29.715Z,-2.93
2018-03-21T02:56:58.123Z,-2.82
2018-03-21T02:59:26.574Z,-2.85
2018-03-21T03:01:55.792Z,-3.08
2018-03-21T03:04:24.186Z,-3.19
2018-03-21T03:06:53.478Z,-3.09
2018-03-21T03:09:21.973Z,-3.09
2018-03-21T03:11:50.391Z,-3.26
2018-03-21T03:14:19.566Z,-3.24
2018-03-21T03:16:47.951Z,-3.38
2018-03-21T03:19:16.400Z,-3.27
2018-03-21T03:21:44.885Z,-3.33
2018-03-21T03:24:13.275Z,-3.21
2018-03-21T03:26:41.693Z,-3.27
2018-03-21T03:29:10.311Z,-3.28
2018-03-21T03:31:38.779Z,-3.26
2018-03-21T03:34:07.364Z,-3.32
2018-03-21T03:36:35.750Z,-3.33
2018-03-21T03:39:04.280Z,-3.31
2018-03-21T03:41:32.826Z,-3.21
2018-03-21T03:44:01.325Z,-3.21
2018-03-21T03:46:29.753Z,-3.43
2018-03-21T03:48:58.892Z,-3.34
2018-03-21T03:51:27.298Z,-3.22
2018-03-21T03:54:00.630Z,-3.33
2018-03-21T03:56:29.783Z,-3.52
2018-03-21T03:58:58.239Z,-3.47
2018-03-21T04:01:26.621Z,-3.56
2018-03-21T04:03:55.028Z,-3.42
2018-03-21T04:06:23.456Z,-3.32
2018-03-21T04:08:52.587Z,-3.43
2018-03-21T04:11:20.970Z,-3.43
2018-03-21T04:13:49.340Z,-3.38
2018-03-21T04:16:17.738Z,-3.50
2018-03-21T04:18:46.130Z,-3.41
2018-03-21T04:21:14.741Z,-3.52
2018-03-21T04:23:43.895Z,-3.65
2018-03-21T04:26:12.287Z,-3.62
2018-03-21T04:28:40.690Z,-3.58
2018-03-21T04:31:09.830Z,-3.47
2018-03-21T04:33:38.261Z,-3.49
2018-03-21T04:36:06.818Z,-3.50
2018-03-21T04:38:35.391Z,-3.48
2018-03-21T04:41:03.767Z,-3.54
2018-03-21T04:43:32.152Z,-3.68
2018-03-21T04:46:00.576Z,-3.61
2018-03-21T04:48:29.050Z,-3.67
2018-03-21T04:50:58.309Z,-3.61
2018-03-21T04:53:26.731Z,-3.63
2018-03-21T04:55:55.920Z,-3.59
2018-03-21T04:58:24.284Z,-3.66
2018-03-21T05:00:52.692Z,-3.64
2018-03-21T05:03:21.850Z,-3.59
2018-03-21T05:05:50.232Z,-3.68
2018-03-21T05:08:18.722Z,-3.80
2018-03-21T05:10:47.120Z,-3.74
2018-03-21T05:13:15.529Z,-3.68
2018-03-21T05:15:44.843Z,-3.81
2018-03-21T05:18:13.230Z,-3.74
2018-03-21T05:20:41.648Z,-3.70
2018-03-21T05:23:10.190Z,-3.86
2018-03-21T05:25:39.364Z,-3.95
2018-03-21T05:28:07.911Z,-3.96
2018-03-21T05:30:36.325Z,-3.95
2018-03-21T05:33:04.725Z,-3.92
2018-03-21T05:35:33.896Z,-3.88
2018-03-21T05:38:03.079Z,-3.85
2018-03-21T05:40:31.546Z,-4.03
2018-03-21T05:42:59.946Z,-3.90
2018-03-21T05:45:28.640Z,-3.93
2018-03-21T05:47:57.040Z,-3.95
2018-03-21T05:50:26.343Z,-3.76
2018-03-21T05:52:55.517Z,-3.84
2018-03-21T05:55:23.930Z,-3.75
2018-03-21T05:57:53.087Z,-3.78
2018-03-21T06:00:21.577Z,-3.63
2018-03-21T06:02:50.115Z,-3.55
2018-03-21T06:05:18.566Z,-3.41
2018-03-21T06:07:47.707Z,-3.38
2018-03-21T06:10:16.300Z,-3.25
2018-03-21T06:12:44.671Z,-3.21
2018-03-21T06:15:13.104Z,-3.13
2018-03-21T06:17:41.525Z,-3.05
2018-03-21T06:20:09.923Z,-2.94
2018-03-21T06:22:38.351Z,-2.81
2018-03-21T06:25:08.199Z,-2.68
2018-03-21T06:27:36.645Z,-2.65
2018-03-21T06:30:05.941Z,-2.50
2018-03-21T06:32:35.090Z,-2.34
2018-03-21T06:35:03.502Z,-2.11
2018-03-21T06:37:31.910Z,-1.94
2018-03-21T06:40:01.092Z,-1.78
2018-03-21T06:42:29.473Z,-1.67
2018-03-21T06:44:57.935Z,-1.49
2018-03-21T06:47:26.319Z,-1.30
2018-03-21T06:49:54.784Z,-1.23
2018-03-21T06:52:23.177Z,-1.10
2018-03-21T06:54:51.584Z,-1.00
2018-03-21T06:57:20.743Z,-0.90
2018-03-21T06:59:49.162Z,-0.81
2018-03-21T07:02:18.335Z,-0.79
2018-03-21T07:04:46.743Z,-0.67
2018-03-21T07:07:15.899Z,-0.72
2018-03-21T07:09:44.663Z,-0.53
2018-03-21T07:12:13.072Z,-0.41
2018-03-21T07:14:59.271Z,-0.40
2018-03-21T07:17:27.674Z,-0.47
2018-03-21T07:19:57.092Z,-0.25
2018-03-21T07:22:26.283Z,0.07
2018-03-21T07:24:54.692Z,0.14
2018-03-21T07:27:23.119Z,0.27
2018-03-21T07:29:51.512Z,0.04
2018-03-21T07:32:19.922Z,0.23
2018-03-21T07:34:49.093Z,0.15
2018-03-21T07:37:18.654Z,-0.21
2018-03-21T07:39:47.074Z,-0.11
2018-03-21T07:42:15.515Z,-0.36
2018-03-21T07:44:43.935Z,-0.18
2018-03-21T07:47:12.355Z,-0.40
2018-03-21T07:49:40.744Z,-0.35
2018-03-21T07:52:09.129Z,-0.25
2018-03-21T07:54:37.507Z,-0.29
2018-03-21T07:57:05.915Z,-0.05
2018-03-21T07:59:34.499Z,-0.04
2018-03-21T08:02:03.036Z,-0.03
2018-03-21T08:04:33.013Z,-0.02
2018-03-21T08:07:01.415Z,0.14
2018-03-21T08:09:29.775Z,-0.19
2018-03-21T08:11:58.172Z,-0.07
2018-03-21T08:14:26.618Z,0.13
2018-03-21T08:16:55.734Z,0.47
2018-03-21T08:19:24.109Z,0.38
2018-03-21T08:21:52.508Z,0.32
2018-03-21T08:24:21.052Z,0.36
2018-03-21T08:26:49.509Z,0.53
2018-03-21T08:29:18.753Z,0.40
2018-03-21T08:31:48.038Z,0.62
2018-03-21T08:34:16.536Z,0.76
2018-03-21T08:36:44.991Z,0.62
2018-03-21T08:39:13.434Z,0.48
2018-03-21T08:41:42.701Z,0.57
2018-03-21T08:44:11.147Z,0.36
2018-03-21T08:46:39.535Z,0.45
2018-03-21T08:49:07.912Z,0.69
2018-03-21T08:51:36.312Z,0.48
2018-03-21T08:54:04.911Z,0.73
2018-03-21T08:56:33.356Z,0.46
2018-03-21T08:59:01.836Z,0.59
2018-03-21T09:01:30.282Z,0.42
2018-03-21T09:03:58.820Z,0.45
2018-03-21T09:06:27.292Z,0.46
2018-03-21T09:08:55.679Z,0.47
2018-03-21T09:11:24.101Z,0.60
2018-03-21T09:13:52.640Z,0.58
2018-03-21T09:16:21.286Z,0.70
2018-03-21T09:18:50.438Z,0.79
2018-03-21T09:21:18.837Z,0.79
2018-03-21T09:23:47.253Z,1.05
2018-03-21T09:26:16.463Z,1.18
2018-03-21T09:28:44.990Z,1.07
2018-03-21T09:31:14.169Z,1.42
2018-03-21T09:33:42.576Z,1.24
2018-03-21T09:36:11.042Z,1.21
2018-03-21T09:38:39.575Z,1.49
2018-03-21T09:41:08.792Z,1.74
2018-03-21T09:43:37.187Z,1.70
2018-03-21T09:46:05.568Z,1.80
2018-03-21T09:48:34.041Z,2.18
2018-03-21T09:51:02.488Z,2.37
2018-03-21T09:53:30.912Z,2.13
2018-03-21T09:55:59.309Z,2.55
2018-03-21T09:58:27.738Z,3.00
2018-03-21T10:00:56.139Z,2.63
2018-03-21T10:03:24.567Z,2.83
2018-03-21T10:05:53.190Z,2.77
2018-03-21T10:08:22.462Z,2.79
2018-03-21T10:10:50.855Z,2.71
2018-03-21T10:13:19.253Z,3.30
2018-03-21T10:15:49.338Z,3.08
2018-03-21T10:18:17.691Z,3.13
2018-03-21T10:20:46.298Z,2.80
2018-03-21T10:23:14.697Z,2.73
2018-03-21T10:25:43.087Z,2.76
2018-03-21T10:28:11.487Z,2.61
2018-03-21T10:30:40.748Z,2.74
2018-03-21T10:33:09.172Z,2.58
2018-03-21T10:35:38.559Z,2.94
2018-03-21T10:38:07.079Z,2.97
2018-03-21T10:40:35.537Z,2.91
2018-03-21T10:43:04.695Z,3.04
2018-03-21T10:45:33.117Z,3.63
2018-03-21T10:48:02.284Z,3.04
2018-03-21T10:50:30.846Z,2.97
2018-03-21T10:52:59.258Z,3.39
2018-03-21T10:55:27.646Z,3.62
2018-03-21T10:57:56.045Z,3.77
2018-03-21T11:00:25.204Z,3.24
2018-03-21T11:03:09.378Z,3.42
2018-03-21T11:05:38.527Z,3.10
2018-03-21T11:08:07.127Z,3.30
2018-03-21T11:10:35.528Z,3.61
2018-03-21T11:13:04.066Z,3.76
2018-03-21T11:15:32.458Z,3.86
2018-03-21T11:18:00.855Z,3.57
2018-03-21T11:20:29.239Z,3.61
2018-03-21T11:22:57.648Z,3.67
2018-03-21T11:25:26.113Z,3.73
2018-03-21T11:27:54.512Z,3.74
2018-03-21T11:30:22.891Z,3.80
2018-03-21T11:32:51.329Z,3.97
2018-03-21T11:35:19.760Z,4.11
2018-03-21T11:37:48.955Z,3.79
2018-03-21T11:40:17.428Z,4.21
2018-03-21T11:42:45.821Z,3.99
2018-03-21T11:45:14.344Z,4.70
2018-03-21T11:47:42.792Z,4.53
2018-03-21T11:50:11.966Z,5.08
2018-03-21T11:52:40.439Z,5.19
2018-03-21T11:55:08.921Z,4.57
2018-03-21T11:57:37.396Z,4.64
2018-03-21T12:00:05.798Z,5.20
2018-03-21T12:02:34.256Z,5.09
2018-03-21T12:05:02.680Z,4.92
2018-03-21T12:07:31.955Z,4.76
2018-03-21T12:10:00.366Z,4.57
2018-03-21T12:12:29.518Z,4.33
2018-03-21T12:14:57.983Z,4.91
2018-03-21T12:17:26.368Z,5.27
2018-03-21T12:19:54.795Z,5.38
2018-03-21T12:22:23.969Z,5.43
2018-03-21T12:24:52.357Z,5.62
2018-03-21T12:27:20.784Z,5.84
2018-03-21T12:29:49.934Z,5.78
2018-03-21T12:32:18.343Z,5.59
2018-03-21T12:34:47.599Z,5.39
2018-03-21T12:37:16.032Z,5.35
2018-03-21T12:39:45.306Z,5.31
2018-03-21T12:42:13.754Z,5.12
2018-03-21T12:44:42.232Z,5.21
2018-03-21T12:47:10.723Z,5.24
2018-03-21T12:49:40.097Z,5.70
2018-03-21T12:52:09.269Z,5.95
2018-03-21T12:54:37.756Z,6.29
2018-03-21T12:57:06.209Z,6.94
2018-03-21T12:59:34.781Z,7.48
2018-03-21T13:02:03.322Z,7.75
2018-03-21T13:04:32.493Z,8.30
2018-03-21T13:07:00.884Z,8.30
2018-03-21T13:09:30.147Z,8.91
2018-03-21T13:11:58.539Z,8.51
2018-03-21T13:14:27.037Z,8.35
2018-03-21T13:16:55.469Z,7.29
2018-03-21T13:19:23.860Z,7.31
2018-03-21T13:21:53.045Z,7.19
2018-03-21T13:24:21.746Z,7.18
2018-03-21T13:26:50.124Z,6.56
2018-03-21T13:29:19.259Z,6.78
2018-03-21T13:31:47.650Z,6.88
2018-03-21T13:34:16.178Z,7.22
2018-03-21T13:36:44.546Z,8.49
2018-03-21T13:39:12.985Z,9.59
2018-03-21T13:41:41.386Z,8.69
2018-03-21T13:44:09.764Z,9.46
2018-03-21T13:46:38.172Z,9.01
2018-03-21T13:49:06.696Z,9.83
2018-03-21T13:51:35.669Z,9.55
2018-03-21T13:54:04.180Z,9.42
2018-03-21T13:56:32.647Z,9.17
2018-03-21T13:59:04.601Z,8.18
2018-03-21T14:01:33.006Z,8.43
2018-03-21T14:04:02.263Z,7.81
2018-03-21T14:06:30.658Z,8.02
2018-03-21T14:08:59.096Z,7.49
2018-03-21T14:11:27.588Z,7.04
2018-03-21T14:13:55.972Z,6.97
2018-03-21T14:16:24.559Z,7.42
2018-03-21T14:18:52.943Z,8.10
2018-03-21T14:21:21.378Z,7.78
2018-03-21T14:23:49.942Z,8.56
2018-03-21T14:26:18.479Z,9.33
2018-03-21T14:28:46.909Z,9.37
2018-03-21T14:31:15.491Z,9.41
2018-03-21T14:33:44.031Z,9.77
2018-03-21T14:36:13.505Z,9.05
2018-03-21T14:38:42.648Z,9.29
2018-03-21T14:41:11.067Z,8.95
2018-03-21T14:43:40.290Z,8.54
2018-03-21T14:46:09.496Z,9.37
2018-03-21T14:48:38.823Z,9.56
2018-03-21T14:51:07.220Z,9.36
2018-03-21T14:53:35.662Z,9.39
2018-03-21T14:56:04.896Z,8.95
2018-03-21T14:58:33.452Z,8.87
2018-03-21T15:01:02.644Z,7.81
2018-03-21T15:03:31.804Z,8.48
2018-03-21T15:06:00.216Z,8.22
2018-03-21T15:08:28.706Z,8.83
2018-03-21T15:10:57.888Z,8.48
2018-03-21T15:13:26.304Z,8.59
2018-03-21T15:15:54.707Z,9.40
2018-03-21T15:18:23.108Z,9.38
2018-03-21T15:20:51.502Z,9.36
2018-03-21T15:23:21.488Z,9.20
2018-03-21T15:25:49.925Z,9.52
2018-03-21T15:28:18.435Z,8.87
2018-03-21T15:30:46.882Z,9.55
2018-03-21T15:33:16.033Z,9.34
2018-03-21T15:35:44.481Z,8.87
2018-03-21T15:38:13.169Z,8.96
2018-03-21T15:40:41.557Z,9.06
2018-03-21T15:43:10.008Z,8.98
2018-03-21T15:45:38.666Z,8.43
2018-03-21T15:48:07.148Z,7.84
2018-03-21T15:50:35.567Z,7.66
2018-03-21T15:53:04.025Z,7.58
2018-03-21T15:55:32.512Z,7.48
2018-03-21T15:58:00.926Z,7.13
2018-03-21T16:00:29.384Z,7.22
2018-03-21T16:02:58.628Z,6.88
2018-03-21T16:05:27.072Z,6.49
2018-03-21T16:07:56.301Z,6.69
2018-03-21T16:10:24.797Z,6.64
2018-03-21T16:13:03.110Z,6.15
2018-03-21T16:15:31.507Z,6.53
2018-03-21T16:17:59.963Z,6.63
2018-03-21T16:20:28.448Z,6.34
2018-03-21T16:22:56.914Z,6.16
2018-03-21T16:25:26.060Z,5.93
2018-03-21T16:27:54.459Z,5.54
2018-03-21T16:30:22.859Z,5.46
2018-03-21T16:32:52.016Z,5.54
2018-03-21T16:35:20.433Z,6.02
2018-03-21T16:37:48.820Z,5.96
2018-03-21T16:40:17.988Z,5.57
2018-03-21T16:42:46.387Z,5.42
2018-03-21T16:45:14.906Z,5.25
2018-03-21T16:47:43.423Z,5.07
2018-03-21T16:50:11.855Z,4.94
2018-03-21T16:52:41.060Z,4.96
2018-03-21T16:55:09.451Z,4.87
2018-03-21T16:57:37.854Z,4.73
2018-03-21T17:00:06.235Z,4.65
2018-03-21T17:02:34.709Z,4.56
2018-03-21T17:05:04.048Z,4.55
2018-03-21T17:07:32.531Z,4.48
2018-03-21T17:10:00.961Z,4.47
2018-03-21T17:12:29.376Z,4.35
2018-03-21T17:14:57.789Z,4.23
2018-03-21T17:17:27.199Z,4.09
2018-03-21T17:19:55.728Z,3.98
2018-03-21T17:22:24.131Z,3.87
2018-03-21T17:24:52.711Z,3.88
2018-03-21T17:27:21.200Z,3.89
2018-03-21T17:29:49.596Z,3.75
2018-03-21T17:32:18.000Z,3.64
2018-03-21T17:34:46.487Z,3.61
2018-03-21T17:37:15.659Z,3.47
2018-03-21T17:39:44.110Z,3.48
2018-03-21T17:42:12.770Z,3.66
2018-03-21T17:44:41.984Z,3.88
2018-03-21T17:47:10.518Z,3.94
2018-03-21T17:49:38.973Z,4.00
2018-03-21T17:52:07.439Z,3.96
2018-03-21T17:54:36.780Z,4.05
2018-03-21T17:57:05.186Z,4.04
2018-03-21T17:59:33.621Z,4.14
2018-03-21T18:02:02.078Z,4.06
2018-03-21T18:04:30.499Z,4.12
2018-03-21T18:06:59.135Z,4.05
2018-03-21T18:09:27.751Z,3.97
2018-03-21T18:11:56.144Z,3.97
2018-03-21T18:14:24.597Z,3.97
2018-03-21T18:16:53.193Z,3.90
2018-03-21T18:19:21.616Z,3.77
2018-03-21T18:21:50.005Z,3.53
2018-03-21T18:24:18.461Z,3.38
2018-03-21T18:26:46.859Z,3.26
2018-03-21T18:29:15.271Z,3.17
2018-03-21T18:31:44.510Z,2.81
2018-03-21T18:34:12.918Z,2.91
2018-03-21T18:36:41.362Z,3.06
2018-03-21T18:39:09.766Z,2.94
2018-03-21T18:41:38.250Z,2.69
2018-03-21T18:44:06.706Z,2.68
2018-03-21T18:46:35.134Z,2.71
2018-03-21T18:49:03.523Z,2.83
2018-03-21T18:51:32.721Z,2.89
2018-03-21T18:54:01.290Z,3.00
2018-03-21T18:56:29.767Z,3.06
2018-03-21T18:58:59.034Z,3.09
2018-03-21T19:01:27.450Z,3.01
2018-03-21T19:03:59.427Z,3.15
2018-03-21T19:06:28.037Z,3.30
2018-03-21T19:08:56.547Z,3.12
2018-03-21T19:11:25.082Z,3.10
2018-03-21T19:13:53.488Z,3.03
2018-03-21T19:16:22.022Z,2.89
2018-03-21T19:18:51.255Z,2.93
2018-03-21T19:21:20.455Z,3.00
2018-03-21T19:23:48.933Z,3.09
2018-03-21T19:26:17.535Z,3.21
2018-03-21T19:28:46.021Z,3.11
2018-03-21T19:31:14.421Z,3.00
2018-03-21T19:33:42.956Z,3.06
2018-03-21T19:36:11.660Z,3.10
2018-03-21T19:38:50.451Z,3.07
2018-03-21T19:41:19.744Z,3.10
2018-03-21T19:43:48.282Z,3.16
2018-03-21T19:46:16.688Z,3.22
2018-03-21T19:48:45.108Z,3.05
2018-03-21T19:51:13.620Z,3.05
2018-03-21T19:53:42.058Z,3.17
2018-03-21T19:56:10.511Z,3.03
2018-03-21T19:58:39.013Z,3.10
2018-03-21T20:01:07.655Z,3.12
2018-03-21T20:03:36.064Z,3.11
2018-03-21T20:06:04.481Z,3.17
2018-03-21T20:08:32.896Z,3.20
2018-03-21T20:11:02.264Z,3.16
2018-03-21T20:13:30.689Z,3.37
2018-03-21T20:15:59.126Z,3.29
2018-03-21T20:18:27.533Z,3.16
2018-03-21T20:20:55.967Z,3.21
2018-03-21T20:23:24.370Z,3.15
2018-03-21T20:25:52.944Z,3.00
2018-03-21T20:28:22.427Z,2.76
2018-03-21T20:30:50.840Z,2.66
2018-03-21T20:33:19.722Z,2.74
2018-03-21T20:35:48.998Z,2.98
2018-03-21T20:38:18.597Z,2.92
2018-03-21T20:40:50.223Z,2.85
2018-03-21T20:43:18.671Z,2.63
2018-03-21T20:45:47.105Z,2.71
2018-03-21T20:48:16.325Z,2.56
2018-03-21T20:50:44.735Z,2.65
2018-03-21T20:53:13.165Z,3.00
2018-03-21T20:55:42.412Z,3.13
2018-03-21T20:58:10.783Z,3.08
2018-03-21T21:00:41.120Z,3.12
2018-03-21T21:03:09.692Z,3.05
2018-03-21T21:05:39.232Z,2.91
2018-03-21T21:08:10.490Z,2.97
2018-03-21T21:10:39.026Z,2.98
2018-03-21T21:13:07.492Z,2.89
2018-03-21T21:15:35.973Z,2.95
2018-03-21T21:18:05.592Z,2.70
2018-03-21T21:20:34.015Z,2.59
2018-03-21T21:23:10.343Z,2.48
2018-03-21T21:25:38.772Z,2.35
2018-03-21T21:28:07.408Z,2.33
2018-03-21T21:30:35.795Z,2.18
2018-03-21T21:33:04.242Z,2.18
2018-03-21T21:35:32.661Z,2.11
2018-03-21T21:38:01.113Z,2.09
2018-03-21T21:40:30.432Z,1.91
2018-03-21T21:42:58.840Z,2.14
2018-03-21T21:45:27.278Z,2.13
2018-03-21T21:47:56.459Z,2.28
2018-03-21T21:50:25.056Z,2.52
2018-03-21T21:52:53.477Z,2.53
2018-03-21T21:55:21.970Z,2.52
2018-03-21T21:57:50.504Z,2.45
2018-03-21T22:00:18.903Z,2.52
2018-03-21T22:02:47.344Z,2.50
2018-03-21T22:05:15.738Z,2.53
2018-03-21T22:07:44.122Z,2.52
2018-03-21T22:10:12.558Z,2.50
2018-03-21T22:12:40.993Z,2.64
2018-03-21T22:15:10.189Z,2.59
2018-03-21T22:17:38.606Z,2.48
2018-03-21T22:20:07.117Z,2.47
2018-03-21T22:22:35.576Z,2.37
2018-03-21T22:25:03.990Z,2.16
2018-03-21T22:27:32.524Z,2.06
2018-03-21T22:30:01.709Z,1.98
2018-03-21T22:32:30.845Z,1.94
2018-03-21T22:34:59.237Z,1.99
2018-03-21T22:37:27.664Z,1.99
2018-03-21T22:39:56.824Z,1.91
2018-03-21T22:42:25.242Z,1.79
2018-03-21T22:44:53.667Z,1.55
2018-03-21T22:47:22.106Z,1.27
2018-03-21T22:49:51.276Z,1.06
2018-03-21T22:52:19.679Z,1.08
2018-03-21T22:54:48.148Z,1.14
2018-03-21T22:57:16.598Z,1.27
2018-03-21T22:59:45.094Z,1.53
2018-03-21T23:02:13.643Z,1.52
2018-03-21T23:04:42.034Z,1.59
2018-03-21T23:07:10.455Z,1.77
2018-03-21T23:09:38.847Z,1.79
2018-03-21T23:12:07.299Z,2.00
2018-03-21T23:14:35.692Z,2.10
2018-03-21T23:17:04.077Z,2.27
2018-03-21T23:19:32.526Z,2.34
2018-03-21T23:22:01.011Z,2.31
2018-03-21T23:24:29.414Z,2.52
2018-03-21T23:26:57.865Z,2.49
2018-03-21T23:29:26.279Z,2.48
2018-03-21T23:31:54.672Z,2.59
2018-03-21T23:34:24.612Z,2.58
2018-03-21T23:36:53.274Z,2.70
2018-03-21T23:39:21.681Z,2.79
2018-03-21T23:41:50.948Z,2.77
2018-03-21T23:44:19.512Z,2.74
2018-03-21T23:46:47.908Z,2.85
2018-03-21T23:49:16.320Z,2.77
2018-03-21T23:51:45.502Z,2.75
2018-03-21T23:54:13.902Z,2.75
2018-03-21T23:56:43.080Z,2.70
2018-03-21T23:59:11.484Z,2.73
